Aullville, Missouri
Current Conditions -  °F | °C
As of 9:55 PM on Sunday 23 Nov 2014 (Local Time) from KRCM Reporting Station
Drizzle Drizzle  
Wind Chill: 30°   Ceiling: 1300
Heat Index: 39°   Visibility: 7mi
Dew Point: 37°   Wind: 18mph
Humidity: 93%   Direction: 310°NW
Pressure: 29.42"   Gusts: 25mph
Location:  39.0541°N, 93.6618°W
Report Text: KRCM 240355Z AUTO 31016G22KT 7SM DZ BKN013 OVC019 04/03 A2942 RMK AO2
Loading
Personal Weather Stations






























Interactive Weather Map New forecast layout! Learn more

10-Day Weather Forecast

Advertisements
Track Severe Weather on mobile